sensor_id;sensor_type;location;lat;lon;timestamp;P1;durP1;ratioP1;P2;durP2;ratioP2
76167;SDS011;64927;48.214;16.378;2023-06-22T00:01:27;14.27;;;5.93;;
76167;SDS011;64927;48.214;16.378;2023-06-22T00:03:53;12.77;;;5.05;;
76167;SDS011;64927;48.214;16.378;2023-06-22T00:06:19;15.13;;;5.05;;
76167;SDS011;64927;48.214;16.378;2023-06-22T00:08:45;13.25;;;5.03;;
76167;SDS011;64927;48.214;16.378;2023-06-22T00:11:10;18.45;;;5.15;;
76167;SDS011;64927;48.214;16.378;2023-06-22T00:13:36;16.58;;;5.55;;
76167;SDS011;64927;48.214;16.378;2023-06-22T00:16:02;9.40;;;5.03;;
76167;SDS011;64927;48.214;16.378;2023-06-22T00:18:30;18.33;;;5.50;;
76167;SDS011;64927;48.214;16.378;2023-06-22T00:20:57;26.40;;;6.15;;
76167;SDS011;64927;48.214;16.378;2023-06-22T00:23:23;14.23;;;5.78;;
76167;SDS011;64927;48.214;16.378;2023-06-22T00:25:49;10.82;;;5.30;;
76167;SDS011;64927;48.214;16.378;2023-06-22T00:28:15;21.48;;;5.50;;
76167;SDS011;64927;48.214;16.378;2023-06-22T00:30:41;15.35;;;5.10;;
76167;SDS011;64927;48.214;16.378;2023-06-22T00:33:06;14.02;;;5.63;;
76167;SDS011;64927;48.214;16.378;2023-06-22T00:35:32;15.85;;;5.25;;
76167;SDS011;64927;48.214;16.378;2023-06-22T00:37:59;17.88;;;5.70;;
76167;SDS011;64927;48.214;16.378;2023-06-22T00:40:29;15.32;;;5.32;;
76167;SDS011;64927;48.214;16.378;2023-06-22T00:42:55;13.10;;;5.18;;
76167;SDS011;64927;48.214;16.378;2023-06-22T00:45:24;17.15;;;5.95;;
76167;SDS011;64927;48.214;16.378;2023-06-22T00:47:53;17.63;;;6.15;;
76167;SDS011;64927;48.214;16.378;2023-06-22T00:50:22;12.98;;;6.15;;
76167;SDS011;64927;48.214;16.378;2023-06-22T00:52:52;15.57;;;5.88;;
76167;SDS011;64927;48.214;16.378;2023-06-22T00:55:24;14.88;;;5.75;;
76167;SDS011;64927;48.214;16.378;2023-06-22T00:57:51;19.13;;;7.38;;
76167;SDS011;64927;48.214;16.378;2023-06-22T01:00:21;14.45;;;6.30;;
76167;SDS011;64927;48.214;16.378;2023-06-22T01:02:52;13.65;;;5.75;;
76167;SDS011;64927;48.214;16.378;2023-06-22T01:05:18;19.05;;;6.68;;
76167;SDS011;64927;48.214;16.378;2023-06-22T01:13:04;14.05;;;5.63;;
76167;SDS011;64927;48.214;16.378;2023-06-22T01:15:40;15.85;;;5.72;;
76167;SDS011;64927;48.214;16.378;2023-06-22T01:18:18;17.30;;;5.20;;
76167;SDS011;64927;48.214;16.378;2023-06-22T01:20:45;18.48;;;5.90;;
76167;SDS011;64927;48.214;16.378;2023-06-22T01:23:56;13.13;;;5.25;;
76167;SDS011;64927;48.214;16.378;2023-06-22T01:26:36;11.52;;;5.72;;
76167;SDS011;64927;48.214;16.378;2023-06-22T01:29:06;17.52;;;5.07;;
76167;SDS011;64927;48.214;16.378;2023-06-22T01:31:37;18.63;;;5.88;;
76167;SDS011;64927;48.214;16.378;2023-06-22T01:34:05;14.43;;;5.28;;
76167;SDS011;64927;48.214;16.378;2023-06-22T01:36:34;16.38;;;4.93;;
76167;SDS011;64927;48.214;16.378;2023-06-22T01:39:01;13.80;;;5.75;;
76167;SDS011;64927;48.214;16.378;2023-06-22T01:41:30;12.50;;;5.70;;
76167;SDS011;64927;48.214;16.378;2023-06-22T01:43:58;12.48;;;5.25;;
76167;SDS011;64927;48.214;16.378;2023-06-22T01:46:27;15.57;;;5.53;;
76167;SDS011;64927;48.214;16.378;2023-06-22T01:48:54;15.48;;;5.40;;
76167;SDS011;64927;48.214;16.378;2023-06-22T01:51:20;12.60;;;6.22;;
76167;SDS011;64927;48.214;16.378;2023-06-22T01:53:48;17.27;;;5.22;;
76167;SDS011;64927;48.214;16.378;2023-06-22T01:56:16;11.50;;;5.47;;
76167;SDS011;64927;48.214;16.378;2023-06-22T01:58:46;10.45;;;4.25;;
76167;SDS011;64927;48.214;16.378;2023-06-22T02:01:18;12.57;;;5.47;;
76167;SDS011;64927;48.214;16.378;2023-06-22T02:04:01;13.90;;;4.75;;
76167;SDS011;64927;48.214;16.378;2023-06-22T02:06:31;8.90;;;4.63;;
76167;SDS011;64927;48.214;16.378;2023-06-22T02:09:02;13.20;;;5.00;;
76167;SDS011;64927;48.214;16.378;2023-06-22T02:11:33;15.23;;;4.65;;
76167;SDS011;64927;48.214;16.378;2023-06-22T02:14:01;15.30;;;5.15;;
76167;SDS011;64927;48.214;16.378;2023-06-22T02:16:27;16.38;;;5.30;;
76167;SDS011;64927;48.214;16.378;2023-06-22T02:18:55;10.18;;;4.72;;
76167;SDS011;64927;48.214;16.378;2023-06-22T02:21:23;13.73;;;5.70;;
76167;SDS011;64927;48.214;16.378;2023-06-22T02:23:51;12.20;;;5.10;;
76167;SDS011;64927;48.214;16.378;2023-06-22T02:26:17;11.52;;;5.38;;
76167;SDS011;64927;48.214;16.378;2023-06-22T02:28:43;12.57;;;4.40;;
76167;SDS011;64927;48.214;16.378;2023-06-22T02:31:11;15.73;;;6.20;;
76167;SDS011;64927;48.214;16.378;2023-06-22T02:33:37;15.77;;;6.05;;
76167;SDS011;64927;48.214;16.378;2023-06-22T02:36:03;14.65;;;6.20;;
76167;SDS011;64927;48.214;16.378;2023-06-22T02:38:30;14.40;;;5.50;;
76167;SDS011;64927;48.214;16.378;2023-06-22T02:40:58;12.63;;;5.63;;
76167;SDS011;64927;48.214;16.378;2023-06-22T02:43:24;12.38;;;5.53;;
76167;SDS011;64927;48.214;16.378;2023-06-22T02:45:52;15.40;;;5.53;;
76167;SDS011;64927;48.214;16.378;2023-06-22T02:48:18;14.75;;;5.50;;
76167;SDS011;64927;48.214;16.378;2023-06-22T02:50:43;14.23;;;5.53;;
76167;SDS011;64927;48.214;16.378;2023-06-22T02:53:11;14.35;;;4.85;;
76167;SDS011;64927;48.214;16.378;2023-06-22T02:55:37;17.23;;;5.28;;
76167;SDS011;64927;48.214;16.378;2023-06-22T02:58:04;9.57;;;4.88;;
76167;SDS011;64927;48.214;16.378;2023-06-22T03:00:30;13.70;;;4.55;;
76167;SDS011;64927;48.214;16.378;2023-06-22T03:02:56;7.47;;;4.20;;
76167;SDS011;64927;48.214;16.378;2023-06-22T03:05:22;10.55;;;5.07;;
76167;SDS011;64927;48.214;16.378;2023-06-22T03:07:48;13.77;;;5.43;;
76167;SDS011;64927;48.214;16.378;2023-06-22T03:10:17;13.68;;;4.70;;
76167;SDS011;64927;48.214;16.378;2023-06-22T03:12:42;13.82;;;5.82;;
76167;SDS011;64927;48.214;16.378;2023-06-22T03:15:12;15.52;;;5.75;;
76167;SDS011;64927;48.214;16.378;2023-06-22T03:17:38;13.57;;;4.72;;
76167;SDS011;64927;48.214;16.378;2023-06-22T03:20:05;7.70;;;4.85;;
76167;SDS011;64927;48.214;16.378;2023-06-22T03:22:37;10.45;;;5.13;;
76167;SDS011;64927;48.214;16.378;2023-06-22T03:25:06;12.10;;;5.78;;
76167;SDS011;64927;48.214;16.378;2023-06-22T03:27:38;10.40;;;5.35;;
76167;SDS011;64927;48.214;16.378;2023-06-22T03:30:04;9.23;;;5.30;;
76167;SDS011;64927;48.214;16.378;2023-06-22T03:32:35;19.73;;;5.60;;
76167;SDS011;64927;48.214;16.378;2023-06-22T03:35:01;16.85;;;5.50;;
76167;SDS011;64927;48.214;16.378;2023-06-22T03:37:27;12.40;;;4.97;;
76167;SDS011;64927;48.214;16.378;2023-06-22T03:39:54;13.40;;;5.75;;
76167;SDS011;64927;48.214;16.378;2023-06-22T03:42:20;10.77;;;5.30;;
76167;SDS011;64927;48.214;16.378;2023-06-22T03:44:48;11.48;;;5.78;;
76167;SDS011;64927;48.214;16.378;2023-06-22T03:47:14;13.23;;;5.07;;
76167;SDS011;64927;48.214;16.378;2023-06-22T03:49:39;12.55;;;5.50;;
76167;SDS011;64927;48.214;16.378;2023-06-22T03:52:05;14.73;;;5.45;;
76167;SDS011;64927;48.214;16.378;2023-06-22T03:54:31;9.88;;;5.85;;
76167;SDS011;64927;48.214;16.378;2023-06-22T03:56:57;17.92;;;5.38;;
76167;SDS011;64927;48.214;16.378;2023-06-22T03:59:23;14.63;;;4.18;;
76167;SDS011;64927;48.214;16.378;2023-06-22T04:01:49;11.52;;;4.80;;
76167;SDS011;64927;48.214;16.378;2023-06-22T04:04:18;16.38;;;4.90;;
76167;SDS011;64927;48.214;16.378;2023-06-22T04:06:44;11.00;;;4.82;;
76167;SDS011;64927;48.214;16.378;2023-06-22T04:09:09;13.38;;;5.10;;
76167;SDS011;64927;48.214;16.378;2023-06-22T04:11:35;12.38;;;5.30;;
76167;SDS011;64927;48.214;16.378;2023-06-22T04:14:00;14.50;;;4.72;;
76167;SDS011;64927;48.214;16.378;2023-06-22T04:16:26;11.20;;;4.95;;
76167;SDS011;64927;48.214;16.378;2023-06-22T04:18:54;14.30;;;4.93;;
76167;SDS011;64927;48.214;16.378;2023-06-22T04:21:20;15.15;;;4.68;;
76167;SDS011;64927;48.214;16.378;2023-06-22T04:23:46;16.20;;;5.03;;
76167;SDS011;64927;48.214;16.378;2023-06-22T04:26:12;9.55;;;4.13;;
76167;SDS011;64927;48.214;16.378;2023-06-22T04:28:39;11.57;;;4.30;;
76167;SDS011;64927;48.214;16.378;2023-06-22T04:31:07;11.07;;;5.13;;
76167;SDS011;64927;48.214;16.378;2023-06-22T04:33:33;9.68;;;4.20;;
76167;SDS011;64927;48.214;16.378;2023-06-22T04:35:58;10.75;;;5.13;;
76167;SDS011;64927;48.214;16.378;2023-06-22T04:38:27;14.55;;;4.65;;
76167;SDS011;64927;48.214;16.378;2023-06-22T04:40:52;13.07;;;5.47;;
76167;SDS011;64927;48.214;16.378;2023-06-22T04:43:19;10.48;;;5.25;;
76167;SDS011;64927;48.214;16.378;2023-06-22T04:45:45;14.98;;;4.85;;
76167;SDS011;64927;48.214;16.378;2023-06-22T04:48:17;13.52;;;5.95;;
76167;SDS011;64927;48.214;16.378;2023-06-22T04:50:45;13.27;;;5.25;;
76167;SDS011;64927;48.214;16.378;2023-06-22T04:53:11;14.23;;;5.03;;
76167;SDS011;64927;48.214;16.378;2023-06-22T04:55:37;11.05;;;5.00;;
76167;SDS011;64927;48.214;16.378;2023-06-22T04:58:09;11.93;;;5.28;;
76167;SDS011;64927;48.214;16.378;2023-06-22T05:00:37;14.25;;;5.63;;
76167;SDS011;64927;48.214;16.378;2023-06-22T05:03:03;13.27;;;4.93;;
76167;SDS011;64927;48.214;16.378;2023-06-22T05:05:31;10.80;;;5.85;;
76167;SDS011;64927;48.214;16.378;2023-06-22T05:07:57;12.60;;;5.13;;
76167;SDS011;64927;48.214;16.378;2023-06-22T05:10:25;12.07;;;5.22;;
76167;SDS011;64927;48.214;16.378;2023-06-22T05:12:53;19.02;;;6.32;;
76167;SDS011;64927;48.214;16.378;2023-06-22T05:15:19;18.63;;;5.53;;
76167;SDS011;64927;48.214;16.378;2023-06-22T05:17:44;17.67;;;5.90;;
76167;SDS011;64927;48.214;16.378;2023-06-22T05:20:13;9.85;;;5.50;;
76167;SDS011;64927;48.214;16.378;2023-06-22T05:22:39;13.18;;;6.10;;
76167;SDS011;64927;48.214;16.378;2023-06-22T05:25:07;12.68;;;5.90;;
76167;SDS011;64927;48.214;16.378;2023-06-22T05:27:34;12.68;;;6.20;;
76167;SDS011;64927;48.214;16.378;2023-06-22T05:30:04;20.95;;;6.50;;
76167;SDS011;64927;48.214;16.378;2023-06-22T05:32:34;14.82;;;5.38;;
76167;SDS011;64927;48.214;16.378;2023-06-22T05:35:00;12.30;;;5.00;;
76167;SDS011;64927;48.214;16.378;2023-06-22T05:37:27;16.67;;;5.95;;
76167;SDS011;64927;48.214;16.378;2023-06-22T05:39:55;11.23;;;4.63;;
76167;SDS011;64927;48.214;16.378;2023-06-22T05:42:22;15.45;;;5.75;;
76167;SDS011;64927;48.214;16.378;2023-06-22T05:44:48;12.05;;;5.00;;
76167;SDS011;64927;48.214;16.378;2023-06-22T05:47:13;12.00;;;4.45;;
76167;SDS011;64927;48.214;16.378;2023-06-22T05:49:41;12.48;;;5.22;;
76167;SDS011;64927;48.214;16.378;2023-06-22T05:52:09;17.42;;;5.43;;
76167;SDS011;64927;48.214;16.378;2023-06-22T05:54:35;14.38;;;5.38;;
76167;SDS011;64927;48.214;16.378;2023-06-22T05:57:03;14.57;;;5.60;;
76167;SDS011;64927;48.214;16.378;2023-06-22T05:59:29;10.15;;;5.65;;
76167;SDS011;64927;48.214;16.378;2023-06-22T06:01:59;14.60;;;5.20;;
76167;SDS011;64927;48.214;16.378;2023-06-22T06:04:25;15.02;;;5.65;;
76167;SDS011;64927;48.214;16.378;2023-06-22T06:06:53;16.55;;;5.93;;
76167;SDS011;64927;48.214;16.378;2023-06-22T06:09:19;15.65;;;6.18;;
76167;SDS011;64927;48.214;16.378;2023-06-22T06:11:44;24.52;;;5.95;;
76167;SDS011;64927;48.214;16.378;2023-06-22T06:14:10;16.88;;;7.40;;
76167;SDS011;64927;48.214;16.378;2023-06-22T06:16:38;18.55;;;6.97;;
76167;SDS011;64927;48.214;16.378;2023-06-22T06:19:06;17.38;;;8.00;;
76167;SDS011;64927;48.214;16.378;2023-06-22T06:21:32;21.17;;;6.20;;
76167;SDS011;64927;48.214;16.378;2023-06-22T06:23:57;22.20;;;9.27;;
76167;SDS011;64927;48.214;16.378;2023-06-22T06:26:23;17.25;;;8.80;;
76167;SDS011;64927;48.214;16.378;2023-06-22T06:28:55;23.17;;;9.43;;
76167;SDS011;64927;48.214;16.378;2023-06-22T06:31:22;23.77;;;8.15;;
76167;SDS011;64927;48.214;16.378;2023-06-22T06:33:48;18.08;;;8.80;;
76167;SDS011;64927;48.214;16.378;2023-06-22T06:36:13;18.55;;;10.95;;
76167;SDS011;64927;48.214;16.378;2023-06-22T06:38:40;23.33;;;12.60;;
76167;SDS011;64927;48.214;16.378;2023-06-22T06:41:05;20.83;;;12.50;;
76167;SDS011;64927;48.214;16.378;2023-06-22T06:43:33;29.00;;;13.25;;
76167;SDS011;64927;48.214;16.378;2023-06-22T06:46:01;26.17;;;12.93;;
76167;SDS011;64927;48.214;16.378;2023-06-22T06:48:28;25.33;;;12.30;;
76167;SDS011;64927;48.214;16.378;2023-06-22T06:50:53;27.30;;;12.25;;
76167;SDS011;64927;48.214;16.378;2023-06-22T06:53:19;22.02;;;12.60;;
76167;SDS011;64927;48.214;16.378;2023-06-22T06:55:47;21.33;;;11.77;;
76167;SDS011;64927;48.214;16.378;2023-06-22T06:58:13;20.90;;;11.98;;
76167;SDS011;64927;48.214;16.378;2023-06-22T07:00:39;19.25;;;11.90;;
76167;SDS011;64927;48.214;16.378;2023-06-22T07:03:04;22.77;;;11.60;;
76167;SDS011;64927;48.214;16.378;2023-06-22T07:05:33;26.08;;;11.35;;
76167;SDS011;64927;48.214;16.378;2023-06-22T07:07:58;19.13;;;10.50;;
76167;SDS011;64927;48.214;16.378;2023-06-22T07:10:26;24.27;;;10.15;;
76167;SDS011;64927;48.214;16.378;2023-06-22T07:12:53;24.35;;;11.43;;
76167;SDS011;64927;48.214;16.378;2023-06-22T07:15:22;20.15;;;9.82;;
76167;SDS011;64927;48.214;16.378;2023-06-22T07:17:47;21.92;;;10.55;;
76167;SDS011;64927;48.214;16.378;2023-06-22T07:20:17;23.15;;;9.65;;
76167;SDS011;64927;48.214;16.378;2023-06-22T07:22:44;19.65;;;8.80;;
76167;SDS011;64927;48.214;16.378;2023-06-22T07:25:10;22.70;;;11.30;;
76167;SDS011;64927;48.214;16.378;2023-06-22T07:27:46;19.00;;;9.88;;
76167;SDS011;64927;48.214;16.378;2023-06-22T07:30:22;19.95;;;9.55;;
76167;SDS011;64927;48.214;16.378;2023-06-22T07:32:48;22.65;;;9.07;;
76167;SDS011;64927;48.214;16.378;2023-06-22T07:35:13;22.35;;;9.45;;
76167;SDS011;64927;48.214;16.378;2023-06-22T07:37:41;20.33;;;8.85;;
76167;SDS011;64927;48.214;16.378;2023-06-22T07:40:09;19.25;;;8.82;;
76167;SDS011;64927;48.214;16.378;2023-06-22T07:42:35;27.27;;;10.23;;
76167;SDS011;64927;48.214;16.378;2023-06-22T07:45:02;20.48;;;8.32;;
76167;SDS011;64927;48.214;16.378;2023-06-22T07:47:28;15.98;;;8.52;;
76167;SDS011;64927;48.214;16.378;2023-06-22T07:49:54;18.20;;;9.70;;
76167;SDS011;64927;48.214;16.378;2023-06-22T07:52:24;23.15;;;8.73;;
76167;SDS011;64927;48.214;16.378;2023-06-22T07:54:50;17.60;;;9.45;;
76167;SDS011;64927;48.214;16.378;2023-06-22T07:57:16;25.83;;;10.48;;
76167;SDS011;64927;48.214;16.378;2023-06-22T07:59:42;20.27;;;10.15;;
76167;SDS011;64927;48.214;16.378;2023-06-22T08:02:10;14.48;;;9.75;;
76167;SDS011;64927;48.214;16.378;2023-06-22T08:04:35;18.52;;;9.32;;
76167;SDS011;64927;48.214;16.378;2023-06-22T08:07:01;15.52;;;9.80;;
76167;SDS011;64927;48.214;16.378;2023-06-22T08:09:30;18.45;;;9.23;;
76167;SDS011;64927;48.214;16.378;2023-06-22T08:11:59;17.83;;;8.25;;
76167;SDS011;64927;48.214;16.378;2023-06-22T08:14:27;16.38;;;8.73;;
76167;SDS011;64927;48.214;16.378;2023-06-22T08:16:54;20.40;;;9.23;;
76167;SDS011;64927;48.214;16.378;2023-06-22T08:19:22;17.65;;;9.32;;
76167;SDS011;64927;48.214;16.378;2023-06-22T08:21:48;16.98;;;8.73;;
76167;SDS011;64927;48.214;16.378;2023-06-22T08:24:13;13.93;;;8.82;;
76167;SDS011;64927;48.214;16.378;2023-06-22T08:26:39;15.38;;;8.60;;
76167;SDS011;64927;48.214;16.378;2023-06-22T08:29:04;15.73;;;8.70;;
76167;SDS011;64927;48.214;16.378;2023-06-22T08:31:30;21.35;;;8.82;;
76167;SDS011;64927;48.214;16.378;2023-06-22T08:34:00;16.23;;;8.93;;
76167;SDS011;64927;48.214;16.378;2023-06-22T08:36:25;24.20;;;8.60;;
76167;SDS011;64927;48.214;16.378;2023-06-22T08:38:56;12.95;;;7.55;;
76167;SDS011;64927;48.214;16.378;2023-06-22T08:41:27;13.05;;;7.82;;
76167;SDS011;64927;48.214;16.378;2023-06-22T08:43:53;15.50;;;8.43;;
76167;SDS011;64927;48.214;16.378;2023-06-22T08:46:19;18.52;;;9.15;;
76167;SDS011;64927;48.214;16.378;2023-06-22T08:48:48;20.10;;;8.65;;
76167;SDS011;64927;48.214;16.378;2023-06-22T08:51:14;17.58;;;9.15;;
76167;SDS011;64927;48.214;16.378;2023-06-22T08:53:39;14.20;;;8.20;;
76167;SDS011;64927;48.214;16.378;2023-06-22T08:56:07;17.15;;;7.95;;
76167;SDS011;64927;48.214;16.378;2023-06-22T08:58:33;14.88;;;8.40;;
76167;SDS011;64927;48.214;16.378;2023-06-22T09:00:58;12.55;;;7.28;;
76167;SDS011;64927;48.214;16.378;2023-06-22T09:03:26;15.43;;;7.65;;
76167;SDS011;64927;48.214;16.378;2023-06-22T09:05:53;16.85;;;7.22;;
76167;SDS011;64927;48.214;16.378;2023-06-22T09:08:21;11.82;;;6.70;;
76167;SDS011;64927;48.214;16.378;2023-06-22T09:10:47;16.48;;;7.45;;
76167;SDS011;64927;48.214;16.378;2023-06-22T09:13:15;20.27;;;8.25;;
76167;SDS011;64927;48.214;16.378;2023-06-22T09:15:43;15.30;;;6.88;;
76167;SDS011;64927;48.214;16.378;2023-06-22T09:18:11;11.93;;;6.57;;
76167;SDS011;64927;48.214;16.378;2023-06-22T09:20:38;13.48;;;6.78;;
76167;SDS011;64927;48.214;16.378;2023-06-22T09:23:03;16.83;;;7.82;;
76167;SDS011;64927;48.214;16.378;2023-06-22T09:25:29;10.50;;;6.63;;
76167;SDS011;64927;48.214;16.378;2023-06-22T09:27:55;12.50;;;7.07;;
76167;SDS011;64927;48.214;16.378;2023-06-22T09:30:21;15.95;;;7.35;;
76167;SDS011;64927;48.214;16.378;2023-06-22T09:32:47;11.63;;;6.55;;
76167;SDS011;64927;48.214;16.378;2023-06-22T09:35:12;17.80;;;6.43;;
76167;SDS011;64927;48.214;16.378;2023-06-22T09:37:38;12.40;;;6.28;;
76167;SDS011;64927;48.214;16.378;2023-06-22T09:40:05;15.05;;;7.28;;
76167;SDS011;64927;48.214;16.378;2023-06-22T09:42:37;15.10;;;6.75;;
76167;SDS011;64927;48.214;16.378;2023-06-22T09:45:03;16.58;;;6.80;;
76167;SDS011;64927;48.214;16.378;2023-06-22T09:47:29;14.05;;;6.22;;
76167;SDS011;64927;48.214;16.378;2023-06-22T09:49:55;17.35;;;7.18;;
76167;SDS011;64927;48.214;16.378;2023-06-22T09:52:21;14.98;;;6.22;;
76167;SDS011;64927;48.214;16.378;2023-06-22T09:54:47;10.30;;;5.72;;
76167;SDS011;64927;48.214;16.378;2023-06-22T09:57:13;14.80;;;7.15;;
76167;SDS011;64927;48.214;16.378;2023-06-22T09:59:39;11.75;;;6.00;;
76167;SDS011;64927;48.214;16.378;2023-06-22T10:02:07;15.23;;;6.72;;
76167;SDS011;64927;48.214;16.378;2023-06-22T10:04:36;12.95;;;7.45;;
76167;SDS011;64927;48.214;16.378;2023-06-22T10:07:02;11.48;;;6.18;;
76167;SDS011;64927;48.214;16.378;2023-06-22T10:09:27;17.50;;;7.50;;
76167;SDS011;64927;48.214;16.378;2023-06-22T10:11:53;11.65;;;7.10;;
76167;SDS011;64927;48.214;16.378;2023-06-22T10:14:21;17.83;;;6.93;;
76167;SDS011;64927;48.214;16.378;2023-06-22T10:16:48;15.55;;;6.88;;
76167;SDS011;64927;48.214;16.378;2023-06-22T10:19:13;11.73;;;6.80;;
76167;SDS011;64927;48.214;16.378;2023-06-22T10:21:39;10.27;;;6.00;;
76167;SDS011;64927;48.214;16.378;2023-06-22T10:24:07;13.13;;;6.25;;
76167;SDS011;64927;48.214;16.378;2023-06-22T10:26:33;16.85;;;5.90;;
76167;SDS011;64927;48.214;16.378;2023-06-22T10:29:00;13.50;;;5.88;;
76167;SDS011;64927;48.214;16.378;2023-06-22T10:31:26;8.10;;;4.65;;
76167;SDS011;64927;48.214;16.378;2023-06-22T10:33:52;11.25;;;4.75;;
76167;SDS011;64927;48.214;16.378;2023-06-22T10:36:19;10.88;;;5.95;;
76167;SDS011;64927;48.214;16.378;2023-06-22T10:38:47;14.02;;;4.45;;
76167;SDS011;64927;48.214;16.378;2023-06-22T10:41:13;10.00;;;4.05;;
76167;SDS011;64927;48.214;16.378;2023-06-22T10:43:39;9.95;;;4.15;;
76167;SDS011;64927;48.214;16.378;2023-06-22T10:46:06;10.40;;;4.43;;
76167;SDS011;64927;48.214;16.378;2023-06-22T10:48:32;9.48;;;3.80;;
76167;SDS011;64927;48.214;16.378;2023-06-22T10:50:57;10.30;;;3.70;;
76167;SDS011;64927;48.214;16.378;2023-06-22T10:53:23;12.65;;;4.35;;
76167;SDS011;64927;48.214;16.378;2023-06-22T10:55:49;7.28;;;3.58;;
76167;SDS011;64927;48.214;16.378;2023-06-22T10:58:18;16.63;;;3.25;;
76167;SDS011;64927;48.214;16.378;2023-06-22T11:00:44;8.98;;;3.65;;
76167;SDS011;64927;48.214;16.378;2023-06-22T11:03:10;11.80;;;4.60;;
76167;SDS011;64927;48.214;16.378;2023-06-22T11:05:36;12.05;;;3.60;;
76167;SDS011;64927;48.214;16.378;2023-06-22T11:08:01;11.82;;;3.92;;
76167;SDS011;64927;48.214;16.378;2023-06-22T11:10:29;9.50;;;4.50;;
76167;SDS011;64927;48.214;16.378;2023-06-22T11:12:54;12.48;;;5.38;;
76167;SDS011;64927;48.214;16.378;2023-06-22T11:15:22;9.07;;;4.30;;
76167;SDS011;64927;48.214;16.378;2023-06-22T11:17:50;8.85;;;4.65;;
76167;SDS011;64927;48.214;16.378;2023-06-22T11:20:18;7.38;;;4.55;;
76167;SDS011;64927;48.214;16.378;2023-06-22T11:22:44;9.32;;;5.03;;
76167;SDS011;64927;48.214;16.378;2023-06-22T11:25:10;8.23;;;5.15;;
76167;SDS011;64927;48.214;16.378;2023-06-22T11:27:38;10.82;;;5.50;;
76167;SDS011;64927;48.214;16.378;2023-06-22T11:30:04;20.35;;;5.65;;
76167;SDS011;64927;48.214;16.378;2023-06-22T11:32:30;15.57;;;5.90;;
76167;SDS011;64927;48.214;16.378;2023-06-22T11:34:56;13.55;;;7.13;;
76167;SDS011;64927;48.214;16.378;2023-06-22T11:37:23;18.90;;;9.15;;
76167;SDS011;64927;48.214;16.378;2023-06-22T11:39:49;10.45;;;5.82;;
76167;SDS011;64927;48.214;16.378;2023-06-22T11:42:19;13.32;;;5.90;;
76167;SDS011;64927;48.214;16.378;2023-06-22T11:44:45;13.68;;;5.18;;
76167;SDS011;64927;48.214;16.378;2023-06-22T11:47:13;10.85;;;4.68;;
76167;SDS011;64927;48.214;16.378;2023-06-22T11:49:41;18.05;;;5.60;;
76167;SDS011;64927;48.214;16.378;2023-06-22T11:52:07;11.90;;;5.88;;
76167;SDS011;64927;48.214;16.378;2023-06-22T11:54:32;9.57;;;5.65;;
76167;SDS011;64927;48.214;16.378;2023-06-22T11:56:58;14.07;;;4.93;;
76167;SDS011;64927;48.214;16.378;2023-06-22T11:59:24;11.23;;;4.32;;
76167;SDS011;64927;48.214;16.378;2023-06-22T12:01:49;10.98;;;4.63;;
76167;SDS011;64927;48.214;16.378;2023-06-22T12:04:16;8.38;;;4.40;;
76167;SDS011;64927;48.214;16.378;2023-06-22T12:06:42;12.93;;;4.45;;
76167;SDS011;64927;48.214;16.378;2023-06-22T12:09:09;11.75;;;4.57;;
76167;SDS011;64927;48.214;16.378;2023-06-22T12:11:38;11.20;;;3.95;;
76167;SDS011;64927;48.214;16.378;2023-06-22T12:14:04;14.88;;;4.32;;
76167;SDS011;64927;48.214;16.378;2023-06-22T12:16:29;11.05;;;3.90;;
76167;SDS011;64927;48.214;16.378;2023-06-22T12:18:55;11.35;;;4.40;;
76167;SDS011;64927;48.214;16.378;2023-06-22T12:21:23;13.85;;;3.85;;
76167;SDS011;64927;48.214;16.378;2023-06-22T12:23:49;11.63;;;3.85;;
76167;SDS011;64927;48.214;16.378;2023-06-22T12:26:14;6.47;;;3.72;;
76167;SDS011;64927;48.214;16.378;2023-06-22T12:28:43;8.60;;;3.85;;
76167;SDS011;64927;48.214;16.378;2023-06-22T12:31:08;8.85;;;3.53;;
76167;SDS011;64927;48.214;16.378;2023-06-22T12:33:34;7.50;;;3.55;;
76167;SDS011;64927;48.214;16.378;2023-06-22T12:35:59;11.07;;;3.53;;
76167;SDS011;64927;48.214;16.378;2023-06-22T12:38:27;11.45;;;3.88;;
76167;SDS011;64927;48.214;16.378;2023-06-22T12:40:53;13.88;;;3.92;;
76167;SDS011;64927;48.214;16.378;2023-06-22T12:43:19;9.35;;;3.83;;
76167;SDS011;64927;48.214;16.378;2023-06-22T12:45:44;8.35;;;3.97;;
76167;SDS011;64927;48.214;16.378;2023-06-22T12:48:10;9.73;;;4.15;;
76167;SDS011;64927;48.214;16.378;2023-06-22T12:50:35;10.82;;;3.83;;
76167;SDS011;64927;48.214;16.378;2023-06-22T12:53:01;9.80;;;3.92;;
76167;SDS011;64927;48.214;16.378;2023-06-22T12:55:28;11.90;;;3.95;;
76167;SDS011;64927;48.214;16.378;2023-06-22T12:57:53;14.25;;;3.78;;
76167;SDS011;64927;48.214;16.378;2023-06-22T13:00:19;12.45;;;3.40;;
76167;SDS011;64927;48.214;16.378;2023-06-22T13:02:45;12.82;;;4.35;;
76167;SDS011;64927;48.214;16.378;2023-06-22T13:05:15;11.57;;;3.63;;
76167;SDS011;64927;48.214;16.378;2023-06-22T13:07:41;7.20;;;3.13;;
76167;SDS011;64927;48.214;16.378;2023-06-22T13:10:07;13.68;;;4.68;;
76167;SDS011;64927;48.214;16.378;2023-06-22T13:12:33;8.77;;;3.90;;
76167;SDS011;64927;48.214;16.378;2023-06-22T13:14:59;10.45;;;4.22;;
76167;SDS011;64927;48.214;16.378;2023-06-22T13:17:25;9.05;;;4.35;;
76167;SDS011;64927;48.214;16.378;2023-06-22T13:19:53;10.85;;;4.35;;
76167;SDS011;64927;48.214;16.378;2023-06-22T13:22:33;14.57;;;4.55;;
76167;SDS011;64927;48.214;16.378;2023-06-22T13:25:05;10.40;;;3.70;;
76167;SDS011;64927;48.214;16.378;2023-06-22T13:27:32;14.90;;;4.90;;
76167;SDS011;64927;48.214;16.378;2023-06-22T13:29:57;16.63;;;4.68;;
76167;SDS011;64927;48.214;16.378;2023-06-22T13:32:23;13.35;;;4.13;;
76167;SDS011;64927;48.214;16.378;2023-06-22T13:34:52;11.63;;;5.00;;
76167;SDS011;64927;48.214;16.378;2023-06-22T13:37:21;10.27;;;4.25;;
76167;SDS011;64927;48.214;16.378;2023-06-22T13:39:46;13.63;;;4.25;;
76167;SDS011;64927;48.214;16.378;2023-06-22T13:42:12;9.20;;;4.45;;
76167;SDS011;64927;48.214;16.378;2023-06-22T13:44:40;11.40;;;4.57;;
76167;SDS011;64927;48.214;16.378;2023-06-22T13:47:06;14.13;;;4.90;;
76167;SDS011;64927;48.214;16.378;2023-06-22T13:49:32;13.65;;;4.40;;
76167;SDS011;64927;48.214;16.378;2023-06-22T13:51:57;11.63;;;4.05;;
76167;SDS011;64927;48.214;16.378;2023-06-22T13:54:23;11.90;;;4.47;;
76167;SDS011;64927;48.214;16.378;2023-06-22T13:56:49;12.38;;;5.32;;
76167;SDS011;64927;48.214;16.378;2023-06-22T13:59:17;15.88;;;5.18;;
76167;SDS011;64927;48.214;16.378;2023-06-22T14:01:43;13.43;;;5.38;;
76167;SDS011;64927;48.214;16.378;2023-06-22T14:04:09;12.85;;;5.03;;
76167;SDS011;64927;48.214;16.378;2023-06-22T14:06:35;14.35;;;5.00;;
76167;SDS011;64927;48.214;16.378;2023-06-22T14:09:00;9.35;;;5.07;;
76167;SDS011;64927;48.214;16.378;2023-06-22T14:11:27;14.15;;;4.90;;
76167;SDS011;64927;48.214;16.378;2023-06-22T14:13:52;12.30;;;5.05;;
76167;SDS011;64927;48.214;16.378;2023-06-22T14:16:18;13.60;;;5.65;;
76167;SDS011;64927;48.214;16.378;2023-06-22T14:18:44;8.75;;;5.03;;
76167;SDS011;64927;48.214;16.378;2023-06-22T14:21:10;8.70;;;4.85;;
76167;SDS011;64927;48.214;16.378;2023-06-22T14:23:40;13.43;;;5.70;;
76167;SDS011;64927;48.214;16.378;2023-06-22T14:26:06;10.90;;;5.03;;